createdAt,value
2023-05-29T00:00:24.772Z,11.47
2023-05-29T00:02:51.847Z,11.47
2023-05-29T00:05:18.623Z,11.43
2023-05-29T00:07:45.023Z,11.48
2023-05-29T00:10:11.636Z,11.50
2023-05-29T00:12:38.429Z,11.56
2023-05-29T00:15:05.237Z,11.69
2023-05-29T00:17:34.653Z,11.75
2023-05-29T00:20:02.581Z,11.69
2023-05-29T00:22:29.041Z,11.70
2023-05-29T00:24:55.530Z,11.76
2023-05-29T00:27:21.943Z,11.80
2023-05-29T00:29:48.312Z,11.82
2023-05-29T00:32:14.700Z,11.84
2023-05-29T00:34:41.160Z,11.94
2023-05-29T00:37:07.699Z,11.92
2023-05-29T00:39:34.123Z,11.89
2023-05-29T00:42:00.654Z,11.91
2023-05-29T00:44:27.016Z,11.93
2023-05-29T00:46:57.466Z,11.92
2023-05-29T00:49:23.879Z,11.91
2023-05-29T00:51:51.108Z,11.91
2023-05-29T00:54:18.778Z,11.86
2023-05-29T00:56:45.242Z,11.85
2023-05-29T00:59:12.058Z,11.89
2023-05-29T01:01:38.794Z,11.87
2023-05-29T01:04:07.580Z,11.87
2023-05-29T01:06:34.229Z,11.74
2023-05-29T01:09:00.766Z,11.66
2023-05-29T01:11:45.645Z,11.63
2023-05-29T01:14:15.027Z,11.54
2023-05-29T01:16:45.862Z,11.55
2023-05-29T01:19:23.996Z,11.52
2023-05-29T01:22:09.161Z,11.60
2023-05-29T01:24:36.110Z,11.59
2023-05-29T01:27:04.859Z,11.61
2023-05-29T01:29:32.312Z,11.61
2023-05-29T01:31:59.064Z,11.62
2023-05-29T01:34:25.527Z,11.48
2023-05-29T01:36:51.984Z,11.50
2023-05-29T01:39:19.957Z,11.39
2023-05-29T01:41:46.339Z,11.42
2023-05-29T01:44:13.601Z,11.32
2023-05-29T01:46:40.834Z,11.24
2023-05-29T01:49:07.456Z,11.21
2023-05-29T01:51:33.826Z,11.04
2023-05-29T01:54:01.700Z,11.12
2023-05-29T01:56:28.438Z,11.04
2023-05-29T01:58:57.864Z,10.98
2023-05-29T02:01:24.379Z,10.99
2023-05-29T02:03:52.027Z,10.95
2023-05-29T02:06:18.529Z,10.97
2023-05-29T02:08:45.025Z,10.99
2023-05-29T02:11:11.373Z,11.01
2023-05-29T02:13:38.076Z,11.07
2023-05-29T02:16:04.604Z,11.11
2023-05-29T02:18:32.078Z,11.19
2023-05-29T02:20:58.677Z,11.21
2023-05-29T02:23:25.477Z,11.23
2023-05-29T02:25:52.191Z,11.19
2023-05-29T02:28:18.537Z,11.17
2023-05-29T02:30:44.935Z,11.20
2023-05-29T02:33:11.299Z,11.18
2023-05-29T02:35:37.701Z,11.14
2023-05-29T02:38:04.235Z,11.13
2023-05-29T02:40:30.579Z,11.16
2023-05-29T02:42:56.970Z,11.06
2023-05-29T02:45:23.425Z,11.07
2023-05-29T02:47:49.811Z,11.03
2023-05-29T02:50:16.531Z,11.01
2023-05-29T02:52:42.942Z,10.96
2023-05-29T02:55:09.458Z,10.96
2023-05-29T02:57:36.403Z,10.91
2023-05-29T03:00:06.317Z,10.82
2023-05-29T03:02:32.860Z,10.86
2023-05-29T03:04:59.523Z,10.87
2023-05-29T03:07:25.923Z,10.76
2023-05-29T03:09:53.278Z,10.85
2023-05-29T03:12:19.928Z,10.90
2023-05-29T03:14:46.517Z,10.87
2023-05-29T03:17:13.437Z,10.87
2023-05-29T03:19:40.018Z,10.90
2023-05-29T03:22:06.566Z,10.96
2023-05-29T03:24:35.924Z,10.99
2023-05-29T03:27:04.345Z,10.99
2023-05-29T03:29:31.364Z,11.07
2023-05-29T03:31:57.740Z,11.02
2023-05-29T03:34:24.127Z,11.16
2023-05-29T03:36:50.741Z,11.23
2023-05-29T03:39:17.133Z,11.25
2023-05-29T03:41:43.504Z,11.16
2023-05-29T03:44:10.881Z,11.16
2023-05-29T03:46:37.288Z,11.17
2023-05-29T03:49:03.693Z,11.12
2023-05-29T03:51:30.067Z,11.20
2023-05-29T03:53:56.428Z,11.25
2023-05-29T03:56:22.821Z,11.29
2023-05-29T03:58:49.282Z,11.40
2023-05-29T04:01:15.683Z,11.42
2023-05-29T04:03:42.237Z,11.40
2023-05-29T04:06:09.258Z,11.43
2023-05-29T04:08:35.660Z,11.48
2023-05-29T04:11:02.404Z,11.51
2023-05-29T04:13:28.842Z,11.55
2023-05-29T04:15:55.660Z,11.61
2023-05-29T04:18:22.215Z,11.75
2023-05-29T04:20:48.851Z,11.81
2023-05-29T04:23:15.496Z,11.91
2023-05-29T04:25:41.933Z,11.89
2023-05-29T04:28:08.380Z,11.99
2023-05-29T04:30:34.875Z,12.03
2023-05-29T04:33:01.361Z,12.16
2023-05-29T04:35:29.432Z,12.29
2023-05-29T04:37:57.399Z,12.27
2023-05-29T04:40:23.792Z,12.32
2023-05-29T04:42:50.860Z,12.44
2023-05-29T04:45:17.363Z,12.65
2023-05-29T04:47:46.872Z,12.75
2023-05-29T04:50:13.703Z,12.80
2023-05-29T04:52:40.174Z,12.77
2023-05-29T04:55:07.209Z,12.85
2023-05-29T04:57:33.845Z,12.96
2023-05-29T05:00:00.312Z,13.02
2023-05-29T05:02:26.875Z,13.13
2023-05-29T05:04:53.314Z,13.17
2023-05-29T05:07:19.687Z,13.33
2023-05-29T05:09:46.051Z,13.26
2023-05-29T05:12:12.565Z,13.27
2023-05-29T05:14:39.028Z,13.37
2023-05-29T05:17:05.835Z,13.47
2023-05-29T05:19:32.286Z,13.53
2023-05-29T05:21:58.645Z,13.59
2023-05-29T05:24:25.072Z,13.70
2023-05-29T05:26:51.465Z,13.71
2023-05-29T05:29:17.907Z,13.69
2023-05-29T05:31:44.303Z,13.79
2023-05-29T05:34:10.871Z,13.73
2023-05-29T05:36:37.817Z,13.76
2023-05-29T05:39:04.265Z,13.75
2023-05-29T05:41:30.741Z,13.74
2023-05-29T05:43:57.115Z,13.73
2023-05-29T05:46:25.205Z,13.73
2023-05-29T05:48:54.226Z,13.81
2023-05-29T05:51:20.749Z,13.70
2023-05-29T05:53:47.522Z,13.73
2023-05-29T05:56:14.053Z,13.80
2023-05-29T05:58:40.823Z,13.87
2023-05-29T06:01:08.609Z,13.80
2023-05-29T06:03:35.592Z,13.75
2023-05-29T06:06:02.076Z,13.82
2023-05-29T06:08:28.446Z,13.97
2023-05-29T06:10:55.097Z,14.00
2023-05-29T06:13:21.748Z,14.21
2023-05-29T06:15:48.198Z,14.11
2023-05-29T06:18:14.754Z,14.25
2023-05-29T06:20:42.230Z,14.58
2023-05-29T06:23:08.722Z,14.63
2023-05-29T06:25:35.166Z,14.99
2023-05-29T06:28:02.150Z,15.29
2023-05-29T06:30:28.874Z,15.27
2023-05-29T06:32:55.455Z,15.54
2023-05-29T06:35:21.925Z,15.70
2023-05-29T06:37:48.644Z,15.79
2023-05-29T06:40:16.683Z,15.55
2023-05-29T06:42:45.519Z,15.53
2023-05-29T06:45:14.433Z,15.54
2023-05-29T06:47:41.634Z,15.65
2023-05-29T06:50:08.725Z,15.73
2023-05-29T06:52:35.113Z,15.61
2023-05-29T06:55:02.445Z,15.48
2023-05-29T06:57:28.988Z,15.68
2023-05-29T06:59:55.351Z,15.69
2023-05-29T07:02:21.971Z,16.04
2023-05-29T07:04:48.430Z,16.14
2023-05-29T07:07:14.821Z,16.20
2023-05-29T07:09:41.217Z,16.33
2023-05-29T07:12:07.596Z,16.89
2023-05-29T07:14:34.915Z,16.65
2023-05-29T07:17:01.530Z,16.85
2023-05-29T07:19:28.839Z,16.65
2023-05-29T07:21:55.252Z,16.99
2023-05-29T07:24:21.673Z,16.83
2023-05-29T07:26:48.115Z,16.61
2023-05-29T07:29:15.604Z,17.07
2023-05-29T07:31:42.048Z,17.20
2023-05-29T07:34:08.434Z,16.90
2023-05-29T07:36:34.878Z,17.17
2023-05-29T07:39:01.312Z,17.56
2023-05-29T07:41:27.866Z,17.51
2023-05-29T07:43:54.991Z,17.23
2023-05-29T07:46:21.602Z,17.35
2023-05-29T07:48:48.147Z,17.35
2023-05-29T07:51:15.099Z,17.70
2023-05-29T07:53:41.509Z,17.84
2023-05-29T07:56:08.027Z,17.27
2023-05-29T07:58:34.462Z,17.10
2023-05-29T08:01:00.899Z,17.54
2023-05-29T08:03:28.224Z,17.44
2023-05-29T08:05:54.754Z,17.57
2023-05-29T08:08:21.189Z,17.74
2023-05-29T08:10:47.656Z,17.61
2023-05-29T08:13:14.028Z,17.50
2023-05-29T08:15:40.426Z,17.61
2023-05-29T08:18:07.943Z,17.34
2023-05-29T08:20:36.138Z,17.40
2023-05-29T08:23:02.673Z,17.42
2023-05-29T08:25:29.046Z,17.73
2023-05-29T08:27:55.596Z,17.89
2023-05-29T08:30:23.010Z,17.97
2023-05-29T08:32:51.334Z,18.03
2023-05-29T08:35:17.744Z,18.03
2023-05-29T08:37:44.239Z,17.87
2023-05-29T08:40:11.781Z,17.98
2023-05-29T08:42:40.990Z,18.43
2023-05-29T08:45:08.453Z,18.82
2023-05-29T08:47:35.258Z,18.68
2023-05-29T08:50:02.402Z,18.37
2023-05-29T08:52:28.905Z,18.38
2023-05-29T08:54:55.460Z,18.37
2023-05-29T08:57:21.863Z,18.24
2023-05-29T08:59:50.413Z,18.56
2023-05-29T09:02:16.880Z,18.36
2023-05-29T09:04:45.986Z,18.66
2023-05-29T09:07:12.878Z,18.80
2023-05-29T09:09:39.255Z,19.03
2023-05-29T09:12:05.770Z,18.74
2023-05-29T09:14:35.904Z,19.13
2023-05-29T09:17:03.000Z,19.03
2023-05-29T09:19:29.350Z,19.21
2023-05-29T09:22:02.813Z,19.44
2023-05-29T09:24:29.444Z,19.42
2023-05-29T09:26:56.839Z,19.29
2023-05-29T09:29:23.445Z,19.71
2023-05-29T09:31:50.282Z,19.24
2023-05-29T09:34:17.012Z,19.75
2023-05-29T09:36:43.422Z,19.80
2023-05-29T09:39:17.684Z,20.05
2023-05-29T09:41:45.197Z,19.32
2023-05-29T09:44:15.026Z,19.13
2023-05-29T09:46:42.492Z,19.22
2023-05-29T09:49:15.197Z,19.03
2023-05-29T09:51:43.575Z,18.90
2023-05-29T09:54:16.893Z,19.01
2023-05-29T09:56:43.739Z,20.05
2023-05-29T09:59:13.364Z,20.17
2023-05-29T10:01:40.793Z,19.95
2023-05-29T10:04:07.216Z,19.88
2023-05-29T10:06:34.028Z,19.72
2023-05-29T10:09:01.641Z,20.56
2023-05-29T10:11:28.745Z,20.25
2023-05-29T10:13:55.281Z,20.96
2023-05-29T10:16:22.773Z,20.47
2023-05-29T10:18:51.396Z,20.36
2023-05-29T10:21:18.043Z,20.57
2023-05-29T10:23:46.823Z,20.61
2023-05-29T10:26:15.340Z,21.44
2023-05-29T10:28:42.645Z,21.40
2023-05-29T10:31:15.346Z,21.26
2023-05-29T10:33:51.423Z,21.30
2023-05-29T10:36:19.669Z,21.21
2023-05-29T10:38:46.296Z,21.04
2023-05-29T10:41:25.153Z,21.50
2023-05-29T10:43:51.774Z,21.01
2023-05-29T10:46:18.196Z,20.99
2023-05-29T10:48:44.745Z,21.16
2023-05-29T10:51:25.565Z,20.99
2023-05-29T10:53:52.157Z,20.49
2023-05-29T10:56:23.669Z,21.05
2023-05-29T10:58:58.541Z,21.44
2023-05-29T11:01:26.122Z,20.91
2023-05-29T11:03:55.799Z,21.06
2023-05-29T11:06:24.794Z,21.81
2023-05-29T11:08:55.152Z,21.94
2023-05-29T11:11:36.598Z,22.07
2023-05-29T11:14:06.751Z,21.40
2023-05-29T11:16:33.562Z,21.45
2023-05-29T11:19:01.232Z,20.84
2023-05-29T11:21:46.845Z,20.94
2023-05-29T11:24:28.947Z,20.98
2023-05-29T11:26:55.930Z,21.43
2023-05-29T11:29:23.230Z,21.64
2023-05-29T11:31:49.648Z,21.64
2023-05-29T11:34:16.129Z,21.43
2023-05-29T11:36:44.453Z,22.15
2023-05-29T11:39:11.027Z,22.08
2023-05-29T11:41:37.405Z,22.70
2023-05-29T11:44:06.791Z,21.72
2023-05-29T11:46:33.697Z,21.05
2023-05-29T11:49:00.547Z,21.58
2023-05-29T11:51:27.040Z,21.66
2023-05-29T11:53:58.934Z,21.69
2023-05-29T11:56:26.632Z,21.75
2023-05-29T11:58:56.432Z,20.85
2023-05-29T12:01:24.644Z,21.73
2023-05-29T12:03:51.641Z,22.22
2023-05-29T12:06:18.071Z,21.45
2023-05-29T12:08:45.182Z,21.14
2023-05-29T12:11:11.606Z,20.93
2023-05-29T12:13:38.180Z,21.33
2023-05-29T12:16:05.513Z,21.31
2023-05-29T12:18:31.925Z,21.34
2023-05-29T12:21:01.929Z,21.34
2023-05-29T12:23:29.004Z,21.14
2023-05-29T12:25:55.629Z,20.89
2023-05-29T12:28:22.613Z,21.31
2023-05-29T12:30:52.473Z,21.42
2023-05-29T12:33:31.949Z,21.28
2023-05-29T12:36:08.634Z,21.48
2023-05-29T12:38:37.477Z,21.24
2023-05-29T12:41:04.035Z,20.73
2023-05-29T12:43:30.669Z,20.77
2023-05-29T12:46:00.354Z,20.85
2023-05-29T12:48:27.631Z,21.07
2023-05-29T12:50:54.047Z,20.68
2023-05-29T12:53:20.647Z,20.05
2023-05-29T12:55:47.995Z,21.07
2023-05-29T12:58:14.957Z,20.90
2023-05-29T13:00:42.037Z,21.00
2023-05-29T13:03:08.863Z,20.67
2023-05-29T13:05:35.982Z,21.24
2023-05-29T13:08:02.553Z,21.15
2023-05-29T13:10:29.083Z,20.78
2023-05-29T13:12:56.160Z,20.74
2023-05-29T13:15:23.525Z,21.21
2023-05-29T13:17:50.081Z,21.39
2023-05-29T13:20:16.777Z,21.69
2023-05-29T13:22:43.744Z,21.29
2023-05-29T13:25:11.334Z,21.12
2023-05-29T13:27:38.546Z,21.14
2023-05-29T13:30:05.945Z,20.60
2023-05-29T13:32:32.398Z,20.81
2023-05-29T13:34:58.872Z,20.77
2023-05-29T13:37:25.446Z,20.58
2023-05-29T13:39:51.905Z,20.84
2023-05-29T13:42:18.803Z,20.89
2023-05-29T13:44:45.210Z,20.27
2023-05-29T13:47:11.573Z,20.78
2023-05-29T13:49:38.018Z,19.89
2023-05-29T13:52:04.738Z,20.25
2023-05-29T13:54:32.557Z,20.34
2023-05-29T13:56:59.099Z,20.31
2023-05-29T13:59:25.732Z,19.39
2023-05-29T14:01:52.276Z,19.86
2023-05-29T14:04:18.775Z,20.21
2023-05-29T14:06:45.652Z,20.51
2023-05-29T14:09:12.200Z,20.36
2023-05-29T14:11:38.685Z,19.87
2023-05-29T14:14:05.100Z,20.16
2023-05-29T14:16:31.703Z,20.09
2023-05-29T14:18:58.976Z,20.04
2023-05-29T14:21:25.463Z,20.25
2023-05-29T14:23:51.836Z,20.15
2023-05-29T14:26:18.341Z,20.46
2023-05-29T14:28:44.921Z,20.54
2023-05-29T14:31:11.339Z,20.39
2023-05-29T14:33:37.885Z,20.58
2023-05-29T14:36:04.390Z,20.51
2023-05-29T14:38:30.762Z,20.27
2023-05-29T14:41:07.985Z,20.28
2023-05-29T14:43:35.553Z,19.99
2023-05-29T14:46:01.991Z,20.10
2023-05-29T14:48:28.405Z,19.79
2023-05-29T14:51:04.577Z,19.84
2023-05-29T14:53:33.762Z,19.64
2023-05-29T14:56:00.204Z,19.61
2023-05-29T14:58:26.649Z,19.44
2023-05-29T15:00:53.098Z,19.26
2023-05-29T15:03:19.621Z,19.08
2023-05-29T15:05:46.856Z,19.55
2023-05-29T15:08:13.318Z,19.39
2023-05-29T15:10:39.735Z,19.05
2023-05-29T15:13:08.293Z,19.26
2023-05-29T15:15:47.356Z,19.54
2023-05-29T15:18:15.053Z,19.53
2023-05-29T15:20:41.925Z,19.63
2023-05-29T15:23:08.441Z,19.21
2023-05-29T15:25:34.822Z,19.08
2023-05-29T15:28:01.652Z,19.02
2023-05-29T15:30:28.038Z,19.52
2023-05-29T15:32:54.449Z,19.54
2023-05-29T15:35:21.034Z,19.21
2023-05-29T15:37:47.453Z,19.09
2023-05-29T15:40:13.879Z,18.92
2023-05-29T15:42:41.744Z,18.63
2023-05-29T15:45:09.034Z,18.09
2023-05-29T15:47:35.590Z,18.39
2023-05-29T15:50:02.018Z,18.29
2023-05-29T15:52:29.857Z,18.00
2023-05-29T15:54:59.838Z,17.89
2023-05-29T15:57:27.128Z,18.00
2023-05-29T15:59:53.524Z,17.93
2023-05-29T16:02:19.917Z,17.79
2023-05-29T16:04:55.464Z,17.71
2023-05-29T16:07:25.510Z,17.71
2023-05-29T16:09:52.307Z,17.69
2023-05-29T16:12:18.785Z,17.96
2023-05-29T16:14:45.283Z,18.19
2023-05-29T16:17:11.758Z,18.22
2023-05-29T16:19:38.210Z,18.16
2023-05-29T16:22:04.680Z,18.25
2023-05-29T16:24:31.155Z,18.21
2023-05-29T16:26:57.600Z,18.55
2023-05-29T16:29:26.527Z,18.53
2023-05-29T16:31:52.937Z,18.44
2023-05-29T16:34:19.351Z,18.30
2023-05-29T16:36:45.832Z,18.26
2023-05-29T16:39:12.700Z,18.29
2023-05-29T16:41:39.454Z,18.32
2023-05-29T16:44:05.975Z,18.38
2023-05-29T16:46:34.335Z,18.23
2023-05-29T16:49:01.103Z,18.23
2023-05-29T16:51:27.498Z,18.38
2023-05-29T16:53:54.001Z,18.09
2023-05-29T16:56:20.392Z,18.14
2023-05-29T16:58:46.921Z,18.10
2023-05-29T17:01:13.473Z,17.98
2023-05-29T17:03:40.232Z,18.14
2023-05-29T17:06:06.777Z,17.98
2023-05-29T17:08:33.267Z,18.21
2023-05-29T17:11:01.252Z,17.95
2023-05-29T17:13:28.990Z,17.80
2023-05-29T17:15:55.913Z,17.83
2023-05-29T17:18:22.558Z,17.99
2023-05-29T17:20:49.125Z,17.91
2023-05-29T17:23:15.615Z,17.96
2023-05-29T17:25:42.088Z,17.79
2023-05-29T17:28:10.687Z,17.75
2023-05-29T17:30:37.812Z,17.69
2023-05-29T17:33:04.699Z,17.53
2023-05-29T17:35:31.757Z,17.51
2023-05-29T17:37:58.301Z,17.22
2023-05-29T17:40:25.717Z,17.02
2023-05-29T17:42:54.291Z,16.93
2023-05-29T17:45:22.405Z,16.82
2023-05-29T17:47:49.912Z,16.74
2023-05-29T17:50:16.650Z,16.60
2023-05-29T17:52:43.364Z,16.50
2023-05-29T17:55:10.053Z,16.37
2023-05-29T17:57:36.878Z,16.41
2023-05-29T18:00:04.962Z,16.15
2023-05-29T18:02:31.501Z,16.09
2023-05-29T18:04:57.987Z,16.02
2023-05-29T18:07:24.471Z,16.03
2023-05-29T18:09:50.870Z,16.00
2023-05-29T18:12:17.282Z,15.95
2023-05-29T18:14:43.691Z,15.89
2023-05-29T18:17:10.251Z,15.81
2023-05-29T18:19:39.538Z,15.68
2023-05-29T18:22:07.311Z,15.72
2023-05-29T18:24:33.693Z,15.67
2023-05-29T18:27:00.108Z,15.55
2023-05-29T18:29:26.642Z,15.51
2023-05-29T18:31:53.073Z,15.42
2023-05-29T18:34:20.138Z,15.43
2023-05-29T18:36:46.606Z,15.34
2023-05-29T18:39:13.060Z,15.21
2023-05-29T18:41:39.472Z,15.22
2023-05-29T18:44:05.928Z,15.08
2023-05-29T18:46:32.641Z,15.10
2023-05-29T18:48:59.103Z,15.10
2023-05-29T18:51:26.029Z,14.98
2023-05-29T18:53:52.420Z,14.98
2023-05-29T18:56:20.082Z,14.92
2023-05-29T18:58:47.513Z,14.81
2023-05-29T19:01:30.131Z,14.74
2023-05-29T19:03:58.222Z,14.67
2023-05-29T19:06:24.776Z,14.56
2023-05-29T19:08:51.174Z,14.62
2023-05-29T19:11:18.310Z,14.59
2023-05-29T19:13:46.875Z,14.53
2023-05-29T19:16:19.380Z,14.44
2023-05-29T19:18:45.954Z,14.41
2023-05-29T19:21:12.739Z,14.40
2023-05-29T19:23:39.235Z,14.37
2023-05-29T19:26:06.288Z,14.33
2023-05-29T19:28:32.675Z,14.30
2023-05-29T19:30:59.331Z,14.19
2023-05-29T19:33:25.906Z,14.19
2023-05-29T19:35:52.788Z,14.12
2023-05-29T19:38:19.270Z,14.04
2023-05-29T19:40:46.963Z,13.90
2023-05-29T19:43:13.916Z,14.00
2023-05-29T19:45:40.342Z,13.93
2023-05-29T19:48:07.264Z,13.95
2023-05-29T19:50:33.788Z,13.89
2023-05-29T19:53:00.364Z,13.84
2023-05-29T19:55:27.344Z,13.83
2023-05-29T19:57:53.935Z,13.82
2023-05-29T20:00:20.320Z,13.89
2023-05-29T20:02:46.937Z,13.73
2023-05-29T20:05:13.600Z,13.68
2023-05-29T20:07:40.016Z,13.67
2023-05-29T20:10:07.418Z,13.52
2023-05-29T20:12:33.930Z,13.52
2023-05-29T20:15:01.361Z,13.47
2023-05-29T20:17:27.877Z,13.32
2023-05-29T20:19:56.745Z,13.29
2023-05-29T20:22:24.227Z,13.14
2023-05-29T20:24:50.704Z,13.07
2023-05-29T20:27:17.288Z,13.07
2023-05-29T20:29:43.836Z,13.05
2023-05-29T20:32:11.201Z,13.04
2023-05-29T20:34:37.892Z,12.95
2023-05-29T20:37:04.616Z,12.96
2023-05-29T20:39:35.247Z,12.92
2023-05-29T20:42:03.604Z,12.82
2023-05-29T20:44:32.717Z,12.78
2023-05-29T20:46:59.659Z,12.76
2023-05-29T20:49:26.171Z,12.68
2023-05-29T20:51:52.872Z,12.68
2023-05-29T20:54:19.496Z,12.64
2023-05-29T20:56:47.118Z,12.69
2023-05-29T20:59:13.498Z,12.58
2023-05-29T21:01:41.377Z,12.43
2023-05-29T21:04:07.957Z,12.35
2023-05-29T21:06:34.366Z,12.22
2023-05-29T21:09:00.794Z,12.23
2023-05-29T21:11:27.972Z,12.17
2023-05-29T21:13:54.742Z,12.12
2023-05-29T21:16:21.489Z,12.19
2023-05-29T21:18:47.976Z,12.07
2023-05-29T21:21:16.142Z,11.94
2023-05-29T21:23:44.460Z,11.94
2023-05-29T21:26:10.954Z,11.95
2023-05-29T21:28:39.350Z,11.87
2023-05-29T21:31:08.894Z,11.79
2023-05-29T21:33:35.972Z,11.72
2023-05-29T21:36:02.465Z,11.72
2023-05-29T21:38:28.883Z,11.58
2023-05-29T21:40:55.906Z,11.63
2023-05-29T21:43:22.685Z,11.55
2023-05-29T21:45:51.570Z,11.41
2023-05-29T21:48:18.129Z,11.36
2023-05-29T21:50:45.907Z,11.30
2023-05-29T21:53:12.402Z,11.28
2023-05-29T21:55:39.219Z,11.19
2023-05-29T21:58:05.896Z,11.12
2023-05-29T22:00:32.391Z,11.18
2023-05-29T22:02:59.288Z,11.00
2023-05-29T22:05:26.500Z,10.99
2023-05-29T22:07:54.192Z,10.95
2023-05-29T22:10:21.081Z,10.90
2023-05-29T22:12:49.900Z,10.97
2023-05-29T22:15:18.564Z,10.88
2023-05-29T22:17:46.869Z,10.82
2023-05-29T22:20:15.314Z,10.68
2023-05-29T22:22:44.091Z,10.67
2023-05-29T22:25:14.064Z,10.60
2023-05-29T22:27:40.843Z,10.61
2023-05-29T22:30:08.743Z,10.66
2023-05-29T22:32:35.434Z,10.68
2023-05-29T22:35:03.370Z,10.57
2023-05-29T22:37:29.778Z,10.57
2023-05-29T22:39:56.176Z,10.56
2023-05-29T22:42:22.572Z,10.56
2023-05-29T22:44:49.264Z,10.48
2023-05-29T22:47:16.735Z,10.43
2023-05-29T22:49:43.160Z,10.41
2023-05-29T22:52:10.636Z,10.34
2023-05-29T22:54:37.726Z,10.34
2023-05-29T22:57:04.644Z,10.37
2023-05-29T22:59:31.051Z,10.36
2023-05-29T23:01:57.871Z,10.30
2023-05-29T23:04:24.370Z,10.36
2023-05-29T23:06:50.867Z,10.35
2023-05-29T23:09:17.316Z,10.22
2023-05-29T23:11:43.682Z,10.20
2023-05-29T23:14:10.367Z,10.26
2023-05-29T23:16:37.642Z,10.26
2023-05-29T23:19:04.430Z,10.21
2023-05-29T23:21:31.629Z,10.28
2023-05-29T23:23:58.907Z,10.22
2023-05-29T23:26:25.666Z,10.23
2023-05-29T23:28:52.452Z,10.25
2023-05-29T23:31:18.893Z,10.20
2023-05-29T23:33:45.599Z,10.15
2023-05-29T23:36:12.139Z,10.21
2023-05-29T23:38:38.554Z,10.20
2023-05-29T23:41:04.961Z,10.22
2023-05-29T23:43:32.350Z,10.14
2023-05-29T23:45:58.904Z,10.19
2023-05-29T23:48:25.309Z,10.23
2023-05-29T23:50:52.046Z,10.27
2023-05-29T23:53:18.427Z,10.27
2023-05-29T23:55:44.831Z,10.30
2023-05-29T23:58:11.675Z,10.24
